Aeroporto :
LOGIN :

Iscrizione | Disclaimer

   EN    FR    IT 

 










Sommario :    VFR   VFR Marginale   IFR   IFR Intensivo   IFR Molto Intensivo
Visibilità : 
Base nubi : 
>= 8 km
>= 3000ft
5 / 8 km
1000 / 3000 ft
1500m / 5 km
500 / 1000 ft
800 / 1500m
200 / 500 ft
< 800m
< 200 ft
Simboli :   Temporali  Nebbia  Neve Forte  Precipitazioni Forti  Vento > 20 kt
SIGMETs :   Varie  Temporali  Ghiacco  Turbolenza  Onda orograficha  Ceneri Vulcaniche






- Altitudine del aeroporto : 79 ft
- Codice IATA : NSY


LICZ - Sigonella (Mil) Catania

ULTIMO METAR :
  • 020655Z 27002KT 9999 SCT020 BKN070 09/09 Q1015 RMK BKN VIS MIN 9999 WIND THR28 23003KT WIND THR10 28001KT A3000 BLU

METARs OBSOLETI :
  • 020555Z 30003KT 5000 -RA SCT030 BKN100 08/08 Q1016 RMK BKN VIS MIN 5000 WIND THR28 29003KT WIND THR10 32003KT A3001 WHT
  • 020455Z 27006KT 5000 -RA SCT030 BKN100 08/08 Q1015 RMK BKN VIS MIN 5000 WIND THR28 27004KT WIND THR10 27004KT A2998 WHT
  • 020355Z 27004KT 9999 SCT025 08/08 Q1014 RMK SCT VIS MIN 9999 WIND THR28 27002KT WIND THR10 29002KT A2996 BLU

TAF TAF LICZ
Valido dal 02 a 06 ore il 03 a 06 ore UTC


020500Z 0206/0306 24004KT 9999 SCT020 SCT070
PROB40
TEMPO 0206/0215 8000 RA FEW020 BKN030
BECMG 0210/0212 10010KT
BECMG 0218/0220 08005KT



MetMap, La meteo Aeronautica in un colpo d'occhio ! - Copyright ORBIFLY Dicembre 2007 - Disclaimer

ORBIFLY MET'MAP TEAM :

Programmazione e sviluppo : Alexandra Zaïnal
Concezione : Baudouin d'Aumeries
Aiuto per la programmazione : Marc-Olivier Méhu
Supporto tecnico e logistico : Manuel Goepfert
Aiuto per la traduzione : Arnaldo La Scala

Contatto : metmap@orbifly.com




FONTI E CREDITI :

   NOAA